Time,TemperatureF,DewpointF,PressureIn,WindDirection,WindDirectionDegrees,WindSpeedMPH,WindSpeedGustMPH,Humidity,HourlyPrecipIn,Conditions,Clouds,dailyrainin,SoftwareType,DateUTC
2013-02-26 00:05:00,31.1,30.0,30.23,SSW,192,1.0,2.0,97,0.00,,,0.05,weatherlink.com 1.10,2013-02-26 05:05:00,
2013-02-26 00:20:00,31.1,30.0,30.23,SSW,192,0.0,0.0,97,0.00,,,0.00,weatherlink.com 1.10,2013-02-26 05:20:00,
2013-02-26 00:36:00,31.0,30.0,30.24,SSW,192,0.0,0.0,97,0.00,,,0.00,weatherlink.com 1.10,2013-02-26 05:36:00,
2013-02-26 00:50:00,30.9,30.0,30.24,SSW,192,0.0,0.0,97,0.00,,,0.00,weatherlink.com 1.10,2013-02-26 05:50:00,
2013-02-26 01:05:00,30.8,30.0,30.25,SSW,192,0.0,1.0,97,0.00,,,0.00,weatherlink.com 1.10,2013-02-26 06:05:00,
2013-02-26 01:20:00,30.8,30.0,30.25,SSW,192,0.0,0.0,97,0.00,,,0.00,weatherlink.com 1.10,2013-02-26 06:20:00,
2013-02-26 01:35:00,30.8,30.0,30.25,SSW,192,0.0,1.0,97,0.00,,,0.00,weatherlink.com 1.10,2013-02-26 06:35:00,
2013-02-26 01:50:00,30.8,30.0,30.24,SSW,192,0.0,1.0,97,0.00,,,0.00,weatherlink.com 1.10,2013-02-26 06:50:00,
2013-02-26 02:05:00,30.8,30.0,30.24,SSW,192,0.0,1.0,97,0.00,,,0.00,weatherlink.com 1.10,2013-02-26 07:05:00,
2013-02-26 02:20:00,30.7,30.0,30.25,SSW,192,0.0,0.0,97,0.00,,,0.00,weatherlink.com 1.10,2013-02-26 07:20:00,
2013-02-26 02:35:00,30.6,30.0,30.25,SSW,192,0.0,0.0,97,0.00,,,0.00,weatherlink.com 1.10,2013-02-26 07:35:00,
2013-02-26 02:50:00,30.8,30.0,30.25,SSW,192,0.0,1.0,97,0.00,,,0.00,weatherlink.com 1.10,2013-02-26 07:50:00,
2013-02-26 03:05:00,30.8,30.0,30.26,SSW,192,0.0,0.0,97,0.00,,,0.00,weatherlink.com 1.10,2013-02-26 08:05:00,
2013-02-26 03:20:00,30.7,30.0,30.26,SSW,192,1.0,1.0,97,0.00,,,0.00,weatherlink.com 1.10,2013-02-26 08:20:00,
2013-02-26 03:35:00,30.8,30.0,30.27,West,265,0.0,2.0,97,0.00,,,0.00,weatherlink.com 1.10,2013-02-26 08:35:00,
2013-02-26 03:50:00,30.7,30.0,30.27,SW,214,0.0,1.0,97,0.00,,,0.00,weatherlink.com 1.10,2013-02-26 08:50:00,
2013-02-26 04:05:00,30.8,30.0,30.26,NW,317,0.0,2.0,97,0.00,,,0.00,weatherlink.com 1.10,2013-02-26 09:05:00,
2013-02-26 04:20:00,30.8,30.0,30.27,NW,317,0.0,1.0,97,0.00,,,0.00,weatherlink.com 1.10,2013-02-26 09:20:00,
2013-02-26 04:35:00,30.7,30.0,30.28,NW,317,0.0,1.0,97,0.00,,,0.00,weatherlink.com 1.10,2013-02-26 09:35:00,
2013-02-26 04:50:00,30.7,30.0,30.29,NW,317,1.0,2.0,97,0.00,,,0.00,weatherlink.com 1.10,2013-02-26 09:50:00,
2013-02-26 05:05:00,30.6,30.0,30.29,NW,317,1.0,1.0,97,0.00,,,0.00,weatherlink.com 1.10,2013-02-26 10:05:00,
2013-02-26 05:20:00,30.5,30.0,30.29,NW,317,0.0,0.0,97,0.00,,,0.00,weatherlink.com 1.10,2013-02-26 10:20:00,
2013-02-26 05:35:00,30.6,30.0,30.29,NW,318,2.0,2.0,97,0.00,,,0.00,weatherlink.com 1.10,2013-02-26 10:35:00,
2013-02-26 05:50:00,30.6,30.0,30.29,NW,319,0.0,2.0,97,0.00,,,0.00,weatherlink.com 1.10,2013-02-26 10:50:00,
2013-02-26 06:05:00,30.7,30.0,30.29,NW,319,1.0,2.0,97,0.00,,,0.00,weatherlink.com 1.10,2013-02-26 11:05:00,
2013-02-26 06:20:00,30.7,30.0,30.29,NW,319,0.0,1.0,97,0.00,,,0.00,weatherlink.com 1.10,2013-02-26 11:20:00,
2013-02-26 06:36:00,30.6,30.0,30.30,NW,319,0.0,1.0,97,0.00,,,0.00,weatherlink.com 1.10,2013-02-26 11:36:00,
2013-02-26 06:51:00,30.6,30.0,30.30,NW,319,1.0,2.0,97,0.00,,,0.00,weatherlink.com 1.10,2013-02-26 11:51:00,
2013-02-26 07:06:00,30.6,30.0,30.30,NW,319,0.0,0.0,97,0.00,,,0.00,weatherlink.com 1.10,2013-02-26 12:06:00,
2013-02-26 07:21:00,30.6,30.0,30.31,NW,319,0.0,1.0,97,0.00,,,0.00,weatherlink.com 1.10,2013-02-26 12:21:00,
2013-02-26 07:36:00,30.9,30.0,30.31,NW,319,1.0,1.0,97,0.00,,,0.00,weatherlink.com 1.10,2013-02-26 12:36:00,
2013-02-26 07:51:00,31.2,30.0,30.31,NW,319,0.0,1.0,96,0.00,,,0.00,weatherlink.com 1.10,2013-02-26 12:51:00,
2013-02-26 08:06:00,32.0,31.0,30.31,NW,319,0.0,0.0,97,0.00,,,0.00,weatherlink.com 1.10,2013-02-26 13:06:00,
2013-02-26 08:21:00,32.5,31.0,30.31,NW,319,1.0,2.0,95,0.00,,,0.00,weatherlink.com 1.10,2013-02-26 13:21:00,
2013-02-26 08:36:00,33.0,31.0,30.31,NW,319,0.0,2.0,93,0.00,,,0.00,weatherlink.com 1.10,2013-02-26 13:36:00,
2013-02-26 08:51:00,34.3,32.0,30.32,NW,319,1.0,2.0,91,0.00,,,0.00,weatherlink.com 1.10,2013-02-26 13:51:00,
2013-02-26 09:06:00,34.9,32.0,30.32,NNW,336,0.0,2.0,89,0.00,,,0.00,weatherlink.com 1.10,2013-02-26 14:06:00,
2013-02-26 09:21:00,35.9,32.0,30.32,ESE,115,0.0,2.0,86,0.00,,,0.00,weatherlink.com 1.10,2013-02-26 14:21:00,
2013-02-26 09:36:00,36.6,32.0,30.32,ESE,119,0.0,2.0,84,0.00,,,0.00,weatherlink.com 1.10,2013-02-26 14:36:00,
2013-02-26 09:51:00,37.1,32.0,30.31,SSE,156,1.0,2.0,82,0.00,,,0.00,weatherlink.com 1.10,2013-02-26 14:51:00,
2013-02-26 10:06:00,38.3,32.0,30.31,SSE,156,0.0,2.0,79,0.00,,,0.00,weatherlink.com 1.10,2013-02-26 15:06:00,
2013-02-26 10:21:00,40.5,32.0,30.30,SSE,159,0.0,2.0,73,0.00,,,0.00,weatherlink.com 1.10,2013-02-26 15:21:00,
2013-02-26 10:36:00,39.9,32.0,30.30,SSW,197,2.0,3.0,72,0.00,,,0.00,weatherlink.com 1.10,2013-02-26 15:36:00,
2013-02-26 10:51:00,39.5,31.0,30.29,SSW,210,2.0,2.0,72,0.00,,,0.00,weatherlink.com 1.10,2013-02-26 15:51:00,
2013-02-26 11:06:00,40.9,32.0,30.29,ESE,123,2.0,3.0,71,0.00,,,0.00,weatherlink.com 1.10,2013-02-26 16:06:00,
2013-02-26 11:21:00,42.0,30.0,30.29,SSW,209,1.0,4.0,63,0.00,,,0.00,weatherlink.com 1.10,2013-02-26 16:21:00,
2013-02-26 11:36:00,42.1,31.0,30.29,SW,217,0.0,6.0,64,0.00,,,0.00,weatherlink.com 1.10,2013-02-26 16:36:00,
2013-02-26 11:51:00,40.9,30.0,30.29,SW,215,1.0,6.0,65,0.00,,,0.00,weatherlink.com 1.10,2013-02-26 16:51:00,
2013-02-26 12:06:00,41.5,30.0,30.28,NNW,340,3.0,4.0,63,0.00,,,0.00,weatherlink.com 1.10,2013-02-26 17:06:00,
2013-02-26 12:21:00,43.3,29.0,30.27,SSW,207,2.0,7.0,58,0.00,,,0.00,weatherlink.com 1.10,2013-02-26 17:21:00,
2013-02-26 12:36:00,41.7,29.0,30.27,SSW,197,4.0,6.0,61,0.00,,,0.00,weatherlink.com 1.10,2013-02-26 17:36:00,
2013-02-26 12:51:00,40.8,28.0,30.27,SSE,166,2.0,7.0,61,0.00,,,0.00,weatherlink.com 1.10,2013-02-26 17:51:00,
2013-02-26 13:06:00,40.6,28.0,30.27,South,185,3.0,6.0,62,0.00,,,0.00,weatherlink.com 1.10,2013-02-26 18:06:00,
2013-02-26 13:22:00,39.8,28.0,30.27,SSW,202,6.0,8.0,63,0.00,,,0.00,weatherlink.com 1.10,2013-02-26 18:22:00,
2013-02-26 13:37:00,39.7,28.0,30.27,SE,142,4.0,8.0,64,0.00,,,0.00,weatherlink.com 1.10,2013-02-26 18:37:00,
2013-02-26 13:52:00,39.4,29.0,30.27,South,178,8.0,9.0,66,0.00,,,0.00,weatherlink.com 1.10,2013-02-26 18:52:00,
2013-02-26 14:07:00,39.9,29.0,30.27,SSW,198,2.0,6.0,66,0.00,,,0.00,weatherlink.com 1.10,2013-02-26 19:07:00,
2013-02-26 14:22:00,40.2,29.0,30.26,SSW,199,5.0,7.0,65,0.00,,,0.00,weatherlink.com 1.10,2013-02-26 19:22:00,
2013-02-26 14:37:00,39.9,29.0,30.25,SSE,168,2.0,9.0,65,0.00,,,0.00,weatherlink.com 1.10,2013-02-26 19:37:00,
2013-02-26 14:52:00,39.3,29.0,30.24,SE,136,4.0,7.0,67,0.00,,,0.00,weatherlink.com 1.10,2013-02-26 19:52:00,
2013-02-26 15:07:00,38.9,29.0,30.24,South,178,2.0,4.0,69,0.00,,,0.00,weatherlink.com 1.10,2013-02-26 20:07:00,
2013-02-26 15:52:00,38.4,30.0,30.23,SSE,168,1.0,4.0,71,0.00,,,0.00,weatherlink.com 1.10,2013-02-26 20:52:00,
2013-02-26 16:07:00,38.4,30.0,30.23,SE,136,2.0,4.0,71,0.00,,,0.00,weatherlink.com 1.10,2013-02-26 21:07:00,
2013-02-26 16:22:00,38.6,31.0,30.22,South,180,2.0,3.0,73,0.00,,,0.00,weatherlink.com 1.10,2013-02-26 21:22:00,
2013-02-26 16:37:00,38.4,30.0,30.23,SSW,211,1.0,3.0,72,0.00,,,0.00,weatherlink.com 1.10,2013-02-26 21:37:00,
2013-02-26 16:52:00,38.2,30.0,30.23,ESE,114,2.0,5.0,73,0.00,,,0.00,weatherlink.com 1.10,2013-02-26 21:52:00,
2013-02-26 17:07:00,38.1,30.0,30.22,SE,143,4.0,6.0,73,0.00,,,0.00,weatherlink.com 1.10,2013-02-26 22:07:00,
2013-02-26 17:22:00,37.9,30.0,30.23,South,171,2.0,6.0,73,0.00,,,0.00,weatherlink.com 1.10,2013-02-26 22:22:00,
2013-02-26 17:37:00,37.5,30.0,30.22,South,186,1.0,5.0,75,0.00,,,0.00,weatherlink.com 1.10,2013-02-26 22:37:00,
2013-02-26 17:52:00,37.0,30.0,30.23,SSE,150,0.0,3.0,77,0.00,,,0.00,weatherlink.com 1.10,2013-02-26 22:52:00,
2013-02-26 18:07:00,36.6,31.0,30.23,ESE,121,0.0,2.0,79,0.00,,,0.00,weatherlink.com 1.10,2013-02-26 23:07:00,
2013-02-26 18:22:00,36.5,30.0,30.22,SSW,209,3.0,6.0,78,0.00,,,0.00,weatherlink.com 1.10,2013-02-26 23:22:00,
2013-02-26 18:37:00,36.8,30.0,30.22,South,184,1.0,7.0,77,0.00,,,0.00,weatherlink.com 1.10,2013-02-26 23:37:00,
2013-02-26 18:52:00,36.4,30.0,30.21,SSE,164,1.0,2.0,79,0.00,,,0.00,weatherlink.com 1.10,2013-02-26 23:52:00,
2013-02-26 19:07:00,35.7,30.0,30.21,South,175,0.0,2.0,81,0.00,,,0.00,weatherlink.com 1.10,2013-02-27 00:07:00,
2013-02-26 19:22:00,35.1,30.0,30.21,South,187,0.0,3.0,83,0.00,,,0.00,weatherlink.com 1.10,2013-02-27 00:22:00,
2013-02-26 19:39:00,35.4,30.0,30.21,SSW,198,0.0,3.0,82,0.00,,,0.00,weatherlink.com 1.10,2013-02-27 00:39:00,
2013-02-26 19:52:00,35.6,31.0,30.22,South,183,0.0,2.0,82,0.00,,,0.00,weatherlink.com 1.10,2013-02-27 00:52:00,
2013-02-26 20:07:00,35.2,30.0,30.23,SE,132,0.0,2.0,82,0.00,,,0.00,weatherlink.com 1.10,2013-02-27 01:07:00,
2013-02-26 20:22:00,34.7,30.0,30.23,South,181,1.0,2.0,84,0.00,,,0.00,weatherlink.com 1.10,2013-02-27 01:22:00,
2013-02-26 20:37:00,34.6,30.0,30.23,South,175,1.0,2.0,84,0.00,,,0.00,weatherlink.com 1.10,2013-02-27 01:37:00,
2013-02-26 20:52:00,34.6,30.0,30.22,South,182,0.0,1.0,84,0.00,,,0.00,weatherlink.com 1.10,2013-02-27 01:52:00,
2013-02-26 21:07:00,34.8,30.0,30.21,South,187,0.0,2.0,83,0.00,,,0.00,weatherlink.com 1.10,2013-02-27 02:07:00,
2013-02-26 21:22:00,35.2,30.0,30.20,SSE,166,1.0,7.0,82,0.00,,,0.00,weatherlink.com 1.10,2013-02-27 02:22:00,
2013-02-26 21:37:00,35.6,30.0,30.20,SSE,167,2.0,7.0,79,0.00,,,0.00,weatherlink.com 1.10,2013-02-27 02:37:00,
2013-02-26 21:52:00,35.9,29.0,30.19,SE,129,3.0,6.0,76,0.00,,,0.00,weatherlink.com 1.10,2013-02-27 02:52:00,
2013-02-26 22:07:00,36.0,28.0,30.19,SSW,198,4.0,9.0,74,0.00,,,0.00,weatherlink.com 1.10,2013-02-27 03:07:00,
2013-02-26 22:22:00,35.9,28.0,30.19,SE,132,3.0,8.0,74,0.00,,,0.00,weatherlink.com 1.10,2013-02-27 03:22:00,
2013-02-26 22:37:00,35.5,28.0,30.18,SSE,148,1.0,5.0,75,0.00,,,0.00,weatherlink.com 1.10,2013-02-27 03:37:00,
2013-02-26 22:52:00,35.0,28.0,30.18,SE,126,3.0,4.0,76,0.00,,,0.00,weatherlink.com 1.10,2013-02-27 03:52:00,
2013-02-26 23:07:00,34.6,28.0,30.17,SSE,148,1.0,4.0,77,0.00,,,0.00,weatherlink.com 1.10,2013-02-27 04:07:00,
2013-02-26 23:22:00,33.8,28.0,30.16,ESE,118,0.0,2.0,79,0.00,,,0.00,weatherlink.com 1.10,2013-02-27 04:22:00,
2013-02-26 23:37:00,33.2,28.0,30.15,NNW,333,2.0,2.0,81,0.00,,,0.00,weatherlink.com 1.10,2013-02-27 04:37:00,
2013-02-26 23:52:00,33.0,28.0,30.14,NNW,330,0.0,2.0,83,0.00,,,0.00,weatherlink.com 1.10,2013-02-27 04:52:00,